createdAt,value
2022-10-13T00:00:47.802Z,77.06
2022-10-13T00:03:14.863Z,76.67
2022-10-13T00:05:43.236Z,76.85
2022-10-13T00:08:10.953Z,76.70
2022-10-13T00:10:41.897Z,76.85
2022-10-13T00:13:11.598Z,76.83
2022-10-13T00:15:43.950Z,76.66
2022-10-13T00:18:10.431Z,76.62
2022-10-13T00:20:42.646Z,76.61
2022-10-13T00:23:09.192Z,76.51
2022-10-13T00:25:35.730Z,76.30
2022-10-13T00:28:02.133Z,76.42
2022-10-13T00:30:34.800Z,76.33
2022-10-13T00:33:01.215Z,76.61
2022-10-13T00:35:27.718Z,76.28
2022-10-13T00:37:54.165Z,76.35
2022-10-13T00:40:20.640Z,76.14
2022-10-13T00:42:47.348Z,75.82
2022-10-13T00:45:26.577Z,76.04
2022-10-13T00:47:57.036Z,75.71
2022-10-13T00:50:31.826Z,75.89
2022-10-13T00:53:00.595Z,75.66
2022-10-13T00:55:31.918Z,75.85
2022-10-13T00:58:05.123Z,76.00
2022-10-13T01:00:33.784Z,76.06
2022-10-13T01:03:02.909Z,75.85
2022-10-13T01:05:30.380Z,75.83
2022-10-13T01:07:57.845Z,75.77
2022-10-13T01:11:13.624Z,75.97
2022-10-13T01:13:42.838Z,76.09
2022-10-13T01:16:27.435Z,76.18
2022-10-13T01:19:27.672Z,76.10
2022-10-13T01:22:06.313Z,76.22
2022-10-13T01:24:56.209Z,76.23
2022-10-13T01:27:38.088Z,76.81
2022-10-13T01:30:07.634Z,76.43
2022-10-13T01:32:55.481Z,76.63
2022-10-13T01:35:44.310Z,76.57
2022-10-13T01:38:46.306Z,77.07
2022-10-13T01:41:19.142Z,77.17
2022-10-13T01:43:59.143Z,76.75
2022-10-13T01:46:31.006Z,76.93
2022-10-13T01:49:01.877Z,76.74
2022-10-13T01:51:31.195Z,77.11
2022-10-13T01:53:57.618Z,76.76
2022-10-13T01:56:24.148Z,77.00
2022-10-13T01:58:53.213Z,76.96
2022-10-13T02:01:35.347Z,76.66
2022-10-13T02:04:30.303Z,76.93
2022-10-13T02:07:29.030Z,76.85
2022-10-13T02:10:13.518Z,76.74
2022-10-13T02:12:49.178Z,76.65
2022-10-13T02:15:21.834Z,76.75
2022-10-13T02:17:48.748Z,76.74
2022-10-13T02:20:17.009Z,76.78
2022-10-13T02:22:47.248Z,76.84
2022-10-13T02:25:13.860Z,76.67
2022-10-13T02:27:40.705Z,76.72
2022-10-13T02:30:07.696Z,76.56
2022-10-13T02:32:34.129Z,76.67
2022-10-13T02:35:00.539Z,76.55
2022-10-13T02:37:27.084Z,76.65
2022-10-13T02:39:53.601Z,76.57
2022-10-13T02:42:20.422Z,76.56
2022-10-13T02:44:47.069Z,76.75
2022-10-13T02:47:13.546Z,76.23
2022-10-13T02:49:39.965Z,75.64
2022-10-13T02:56:12.260Z,75.62
2022-10-13T02:58:38.838Z,75.76
2022-10-13T03:01:10.546Z,75.88
2022-10-13T03:03:37.111Z,76.41
2022-10-13T03:06:04.466Z,76.17
2022-10-13T03:08:33.214Z,77.35
2022-10-13T03:11:00.056Z,77.19
2022-10-13T03:13:27.311Z,77.35
2022-10-13T03:15:54.175Z,78.01
2022-10-13T03:18:20.660Z,78.20
2022-10-13T03:21:03.189Z,78.51
2022-10-13T03:23:30.119Z,78.49
2022-10-13T03:25:56.714Z,78.68
2022-10-13T03:28:23.430Z,78.66
2022-10-13T03:30:50.920Z,78.78
2022-10-13T03:33:17.373Z,78.84
2022-10-13T03:35:44.163Z,78.71
2022-10-13T03:38:11.222Z,78.81
2022-10-13T03:40:38.711Z,78.98
2022-10-13T03:43:05.126Z,78.59
2022-10-13T03:45:31.609Z,78.50
2022-10-13T03:47:58.718Z,78.52
2022-10-13T03:50:26.174Z,78.44
2022-10-13T03:52:54.068Z,78.60
2022-10-13T03:55:20.490Z,77.37
2022-10-13T03:57:46.903Z,77.04
2022-10-13T04:00:14.250Z,76.94
2022-10-13T04:02:40.640Z,77.27
2022-10-13T04:05:07.334Z,77.21
2022-10-13T04:07:34.435Z,77.49
2022-10-13T04:10:11.171Z,78.09
2022-10-13T04:12:38.358Z,78.26
2022-10-13T04:15:05.235Z,78.61
2022-10-13T04:17:31.659Z,78.65
2022-10-13T04:19:58.103Z,78.18
2022-10-13T04:22:24.555Z,78.38
2022-10-13T04:24:50.986Z,78.26
2022-10-13T04:27:19.845Z,78.38
2022-10-13T04:29:46.282Z,78.51
2022-10-13T04:32:12.824Z,78.41
2022-10-13T04:34:39.289Z,78.29
2022-10-13T04:37:05.733Z,77.13
2022-10-13T04:39:32.217Z,78.14
2022-10-13T04:41:59.021Z,78.85
2022-10-13T04:44:25.651Z,78.60
2022-10-13T04:46:52.147Z,78.54
2022-10-13T04:49:19.769Z,79.44
2022-10-13T04:51:46.222Z,78.73
2022-10-13T04:54:12.677Z,78.32
2022-10-13T04:56:39.095Z,78.40
2022-10-13T04:59:05.849Z,78.75
2022-10-13T05:01:33.211Z,78.57
2022-10-13T05:04:02.099Z,78.73
2022-10-13T05:06:39.295Z,79.37
2022-10-13T05:09:16.145Z,79.72
2022-10-13T05:11:42.681Z,80.02
2022-10-13T05:14:09.147Z,79.92
2022-10-13T05:16:35.598Z,80.03
2022-10-13T05:19:02.041Z,79.45
2022-10-13T05:21:29.670Z,79.31
2022-10-13T05:23:57.476Z,79.40
2022-10-13T05:26:29.195Z,78.38
2022-10-13T05:28:57.233Z,78.46
2022-10-13T05:31:27.027Z,78.07
2022-10-13T05:33:54.075Z,78.54
2022-10-13T05:36:29.979Z,78.48
2022-10-13T05:38:59.357Z,78.09
2022-10-13T05:41:27.043Z,78.11
2022-10-13T05:43:57.380Z,78.74
2022-10-13T05:46:24.050Z,78.91
2022-10-13T05:48:51.097Z,78.71
2022-10-13T05:51:43.277Z,78.42
2022-10-13T05:54:23.005Z,78.05
2022-10-13T05:57:06.736Z,78.30
2022-10-13T05:59:37.411Z,78.07
2022-10-13T06:02:07.964Z,77.98
2022-10-13T06:04:39.942Z,78.16
2022-10-13T06:07:07.900Z,77.73
2022-10-13T06:09:37.949Z,78.39
2022-10-13T06:12:05.852Z,78.26
2022-10-13T06:14:33.058Z,78.00
2022-10-13T06:17:01.567Z,78.28
2022-10-13T06:19:28.289Z,77.75
2022-10-13T06:21:54.788Z,77.11
2022-10-13T06:24:21.299Z,77.54
2022-10-13T06:26:48.065Z,76.84
2022-10-13T06:29:14.499Z,76.75
2022-10-13T06:31:40.942Z,76.58
2022-10-13T06:34:07.532Z,76.57
2022-10-13T06:36:34.000Z,76.62
2022-10-13T06:39:00.456Z,76.80
2022-10-13T06:41:26.931Z,76.48
2022-10-13T06:43:53.358Z,76.32
2022-10-13T06:46:20.999Z,76.27
2022-10-13T06:48:51.125Z,75.71
2022-10-13T06:51:17.804Z,75.85
2022-10-13T06:53:44.225Z,75.56
2022-10-13T06:56:10.946Z,75.98
2022-10-13T06:58:38.434Z,75.59
2022-10-13T07:01:05.975Z,75.04
2022-10-13T07:03:32.588Z,75.33
2022-10-13T07:06:03.737Z,75.21
2022-10-13T07:08:31.121Z,74.65
2022-10-13T07:10:57.765Z,74.64
2022-10-13T07:13:24.349Z,74.70
2022-10-13T07:15:50.795Z,74.39
2022-10-13T07:18:17.287Z,74.51
2022-10-13T07:20:43.779Z,74.26
2022-10-13T07:23:10.220Z,74.10
2022-10-13T07:25:37.680Z,73.57
2022-10-13T07:28:04.339Z,73.71
2022-10-13T07:30:30.880Z,73.52
2022-10-13T07:32:57.309Z,73.74
2022-10-13T07:35:30.265Z,74.07
2022-10-13T07:37:57.397Z,73.53
2022-10-13T07:40:24.788Z,73.99
2022-10-13T07:42:51.259Z,73.92
2022-10-13T07:45:18.208Z,73.69
2022-10-13T07:47:44.708Z,73.90
2022-10-13T07:50:11.768Z,74.06
2022-10-13T07:52:38.254Z,73.46
2022-10-13T07:55:05.236Z,73.41
2022-10-13T07:57:31.698Z,73.74
2022-10-13T07:59:58.245Z,73.41
2022-10-13T08:02:24.812Z,73.16
2022-10-13T08:04:51.243Z,73.87
2022-10-13T08:07:18.160Z,73.51
2022-10-13T08:09:44.982Z,73.21
2022-10-13T08:12:11.951Z,73.32
2022-10-13T08:14:38.489Z,73.02
2022-10-13T08:17:04.989Z,73.09
2022-10-13T08:19:31.453Z,73.03
2022-10-13T08:21:59.532Z,73.32
2022-10-13T08:24:27.564Z,73.15
2022-10-13T08:26:54.561Z,72.79
2022-10-13T08:29:23.120Z,71.91
2022-10-13T08:31:52.465Z,72.15
2022-10-13T08:34:19.756Z,71.92
2022-10-13T08:36:46.306Z,72.26
2022-10-13T08:39:13.891Z,72.13
2022-10-13T08:41:43.978Z,71.29
2022-10-13T08:47:37.407Z,71.49
2022-10-13T08:50:11.763Z,71.69
2022-10-13T08:52:48.957Z,71.04
2022-10-13T08:55:30.687Z,71.22
2022-10-13T08:57:57.434Z,71.17
2022-10-13T09:00:28.583Z,70.49
2022-10-13T09:03:06.528Z,71.24
2022-10-13T09:05:51.978Z,70.58
2022-10-13T09:08:20.650Z,71.64
2022-10-13T09:10:49.114Z,71.43
2022-10-13T09:13:19.325Z,71.28
2022-10-13T09:15:47.997Z,71.11
2022-10-13T09:18:16.534Z,70.91
2022-10-13T09:20:43.037Z,70.86
2022-10-13T09:23:19.965Z,70.98
2022-10-13T09:25:49.884Z,71.06
2022-10-13T09:28:16.272Z,71.11
2022-10-13T09:30:44.763Z,70.96
2022-10-13T09:33:14.119Z,71.07
2022-10-13T09:36:13.034Z,70.49
2022-10-13T09:38:41.949Z,70.62
2022-10-13T09:41:20.187Z,70.52
2022-10-13T09:43:46.548Z,70.25
2022-10-13T09:46:36.164Z,70.07
2022-10-13T09:49:26.494Z,70.32
2022-10-13T09:52:00.640Z,70.40
2022-10-13T09:54:48.905Z,70.71
2022-10-13T09:57:33.852Z,70.38
2022-10-13T10:00:15.658Z,70.33
2022-10-13T10:02:49.496Z,70.29
2022-10-13T10:05:24.099Z,69.43
2022-10-13T10:08:02.959Z,70.00
2022-10-13T10:10:39.540Z,70.02
2022-10-13T10:13:12.487Z,69.95
2022-10-13T10:15:55.156Z,69.72
2022-10-13T10:18:29.875Z,69.89
2022-10-13T10:21:06.742Z,69.76
2022-10-13T10:23:39.127Z,69.12
2022-10-13T10:26:20.763Z,68.93
2022-10-13T10:29:02.605Z,68.29
2022-10-13T10:31:55.555Z,68.36
2022-10-13T10:34:33.331Z,67.64
2022-10-13T10:37:08.575Z,67.35
2022-10-13T10:39:52.636Z,67.03
2022-10-13T10:42:54.414Z,66.65
2022-10-13T10:45:26.030Z,66.26
2022-10-13T10:47:59.182Z,64.86
2022-10-13T10:50:28.277Z,64.52
2022-10-13T10:53:09.208Z,64.49
2022-10-13T10:55:46.259Z,64.74
2022-10-13T10:58:33.042Z,61.13
2022-10-13T11:01:03.996Z,59.58
2022-10-13T11:03:53.988Z,59.60
2022-10-13T11:06:36.020Z,60.78
2022-10-13T11:09:04.968Z,59.54
2022-10-13T11:11:37.547Z,60.11
2022-10-13T11:14:08.259Z,60.27
2022-10-13T11:16:58.555Z,60.15
2022-10-13T11:19:37.267Z,59.46
2022-10-13T11:22:03.622Z,58.93
2022-10-13T11:24:34.436Z,59.16
2022-10-13T11:27:15.983Z,58.53
2022-10-13T11:29:58.049Z,58.78
2022-10-13T11:32:27.808Z,58.15
2022-10-13T11:34:58.530Z,57.58
2022-10-13T11:37:35.702Z,58.67
2022-10-13T11:40:23.422Z,58.81
2022-10-13T11:43:03.750Z,58.50
2022-10-13T11:45:47.338Z,58.67
2022-10-13T11:48:47.726Z,57.79
2022-10-13T11:51:29.017Z,57.86
2022-10-13T11:54:10.098Z,58.09
2022-10-13T11:56:49.117Z,57.01
2022-10-13T11:59:29.251Z,56.07
2022-10-13T12:02:10.663Z,56.38
2022-10-13T12:04:42.773Z,56.60
2022-10-13T12:07:15.707Z,57.06
2022-10-13T12:09:51.413Z,56.53
2022-10-13T12:12:22.645Z,56.65
2022-10-13T12:14:52.263Z,54.39
2022-10-13T12:17:26.337Z,55.61
2022-10-13T12:19:55.411Z,53.50
2022-10-13T12:22:22.501Z,54.98
2022-10-13T12:25:00.900Z,55.34
2022-10-13T12:27:29.024Z,55.36
2022-10-13T12:29:55.544Z,55.24
2022-10-13T12:32:25.226Z,56.05
2022-10-13T12:34:51.727Z,54.76
2022-10-13T12:37:33.669Z,55.24
2022-10-13T12:40:01.242Z,55.21
2022-10-13T12:42:30.964Z,54.26
2022-10-13T12:45:01.293Z,54.81
2022-10-13T12:51:31.721Z,54.91
2022-10-13T12:53:58.239Z,56.19
2022-10-13T12:56:31.184Z,55.81
2022-10-13T12:58:57.925Z,55.97
2022-10-13T13:01:35.199Z,57.16
2022-10-13T13:04:35.461Z,57.98
2022-10-13T13:07:04.451Z,58.00
2022-10-13T13:09:33.196Z,57.63
2022-10-13T13:12:23.574Z,58.13
2022-10-13T13:14:53.160Z,58.09
2022-10-13T13:20:28.375Z,58.04
2022-10-13T13:22:55.575Z,57.25
2022-10-13T13:25:22.369Z,56.59
2022-10-13T13:27:49.143Z,56.52
2022-10-13T13:30:19.771Z,56.88
2022-10-13T13:32:47.420Z,56.70
2022-10-13T13:35:14.140Z,57.76
2022-10-13T13:37:45.442Z,57.25
2022-10-13T13:40:20.842Z,57.45
2022-10-13T13:42:47.417Z,55.94
2022-10-13T13:45:19.478Z,55.40
2022-10-13T13:47:47.275Z,55.86
2022-10-13T13:50:18.601Z,55.62
2022-10-13T13:52:54.063Z,55.79
2022-10-13T13:55:20.520Z,56.35
2022-10-13T13:57:46.968Z,56.90
2022-10-13T14:00:15.414Z,57.12
2022-10-13T14:02:44.684Z,57.23
2022-10-13T14:05:12.379Z,56.95
2022-10-13T14:07:39.901Z,56.46
2022-10-13T14:10:08.037Z,56.25
2022-10-13T14:12:34.987Z,55.41
2022-10-13T14:15:01.490Z,56.36
2022-10-13T14:17:28.240Z,56.55
2022-10-13T14:19:56.176Z,56.36
2022-10-13T14:22:23.131Z,56.26
2022-10-13T14:24:50.087Z,57.00
2022-10-13T14:27:16.569Z,57.43
2022-10-13T14:29:43.024Z,57.39
2022-10-13T14:32:09.528Z,57.47
2022-10-13T14:34:36.050Z,58.20
2022-10-13T14:37:02.536Z,59.20
2022-10-13T14:39:28.996Z,58.64
2022-10-13T14:41:55.426Z,59.27
2022-10-13T14:44:21.862Z,58.70
2022-10-13T14:46:48.355Z,58.72
2022-10-13T14:49:14.802Z,58.53
2022-10-13T14:51:42.666Z,58.76
2022-10-13T14:54:09.203Z,58.60
2022-10-13T14:56:36.081Z,58.89
2022-10-13T14:59:05.215Z,59.17
2022-10-13T15:01:39.320Z,59.64
2022-10-13T15:04:05.744Z,59.28
2022-10-13T15:06:35.051Z,59.65
2022-10-13T15:09:01.602Z,60.02
2022-10-13T15:11:28.063Z,60.47
2022-10-13T15:13:54.610Z,60.38
2022-10-13T15:16:29.529Z,59.81
2022-10-13T15:18:56.600Z,59.95
2022-10-13T15:21:24.117Z,60.20
2022-10-13T15:23:50.599Z,60.69
2022-10-13T15:26:18.978Z,60.77
2022-10-13T15:28:47.788Z,61.29
2022-10-13T15:31:15.775Z,60.96
2022-10-13T15:33:44.730Z,60.99
2022-10-13T15:36:11.259Z,60.61
2022-10-13T15:38:39.658Z,60.47
2022-10-13T15:41:07.026Z,60.05
2022-10-13T15:43:34.594Z,60.95
2022-10-13T15:46:21.134Z,60.64
2022-10-13T15:48:48.799Z,61.70
2022-10-13T15:51:17.809Z,61.84
2022-10-13T15:53:44.280Z,61.97
2022-10-13T15:56:10.724Z,62.71
2022-10-13T15:58:37.452Z,63.44
2022-10-13T16:01:08.875Z,63.84
2022-10-13T16:03:35.524Z,65.02
2022-10-13T16:06:07.327Z,65.53
2022-10-13T16:08:37.833Z,65.99
2022-10-13T16:11:08.840Z,66.59
2022-10-13T16:13:35.308Z,67.19
2022-10-13T16:16:02.118Z,67.43
2022-10-13T16:18:30.319Z,67.05
2022-10-13T16:20:57.203Z,68.10
2022-10-13T16:23:24.300Z,68.10
2022-10-13T16:25:50.834Z,68.56
2022-10-13T16:28:17.319Z,67.89
2022-10-13T16:30:44.587Z,67.88
2022-10-13T16:33:11.039Z,68.04
2022-10-13T16:35:37.468Z,68.35
2022-10-13T16:38:03.913Z,68.37
2022-10-13T16:40:30.910Z,68.82
2022-10-13T16:42:57.382Z,68.91
2022-10-13T16:45:35.676Z,69.33
2022-10-13T16:48:08.028Z,70.44
2022-10-13T16:50:34.448Z,70.80
2022-10-13T16:53:00.884Z,70.56
2022-10-13T16:55:27.368Z,70.61
2022-10-13T16:57:53.790Z,70.54
2022-10-13T17:00:20.374Z,71.14
2022-10-13T17:02:46.995Z,71.64
2022-10-13T17:05:13.483Z,71.71
2022-10-13T17:07:39.928Z,71.19
2022-10-13T17:10:06.952Z,72.14
2022-10-13T17:12:33.775Z,72.42
2022-10-13T17:15:00.205Z,72.73
2022-10-13T17:17:27.218Z,72.29
2022-10-13T17:19:53.904Z,72.72
2022-10-13T17:22:20.462Z,73.39
2022-10-13T17:24:48.393Z,74.21
2022-10-13T17:27:16.455Z,74.49
2022-10-13T17:29:43.214Z,74.38
2022-10-13T17:32:09.963Z,74.41
2022-10-13T17:34:36.901Z,74.13
2022-10-13T17:37:05.610Z,74.33
2022-10-13T17:39:32.038Z,75.23
2022-10-13T17:41:58.601Z,74.58
2022-10-13T17:44:25.220Z,74.79
2022-10-13T17:46:51.695Z,74.78
2022-10-13T17:49:18.295Z,74.77
2022-10-13T17:51:46.088Z,74.78
2022-10-13T17:54:15.946Z,75.07
2022-10-13T17:56:43.595Z,74.82
2022-10-13T17:59:10.170Z,74.77
2022-10-13T18:01:37.077Z,74.99
2022-10-13T18:04:08.443Z,75.43
2022-10-13T18:06:39.879Z,75.92
2022-10-13T18:09:08.827Z,76.30
2022-10-13T18:11:36.173Z,76.75
2022-10-13T18:14:03.279Z,76.43
2022-10-13T18:16:29.992Z,76.55
2022-10-13T18:18:56.801Z,76.69
2022-10-13T18:21:27.714Z,77.27
2022-10-13T18:23:55.921Z,76.57
2022-10-13T18:26:24.603Z,76.40
2022-10-13T18:28:51.537Z,76.41
2022-10-13T18:31:27.612Z,76.65
2022-10-13T18:33:59.010Z,77.02
2022-10-13T18:36:33.899Z,77.20
2022-10-13T18:39:10.802Z,77.11
2022-10-13T18:41:39.597Z,77.68
2022-10-13T18:44:06.846Z,77.42
2022-10-13T18:46:34.930Z,77.27
2022-10-13T18:49:02.695Z,77.33
2022-10-13T18:51:35.644Z,77.04
2022-10-13T18:54:03.762Z,76.97
2022-10-13T18:56:31.621Z,77.12
2022-10-13T18:59:00.364Z,77.25
2022-10-13T19:01:29.449Z,77.02
2022-10-13T19:03:56.429Z,77.02
2022-10-13T19:06:26.842Z,77.19
2022-10-13T19:09:00.542Z,77.34
2022-10-13T19:11:28.602Z,77.59
2022-10-13T19:13:55.428Z,77.91
2022-10-13T19:16:24.514Z,77.81
2022-10-13T19:18:51.420Z,77.34
2022-10-13T19:21:19.219Z,77.67
2022-10-13T19:23:45.999Z,77.82
2022-10-13T19:26:23.666Z,77.93
2022-10-13T19:28:56.926Z,77.92
2022-10-13T19:31:26.214Z,78.21
2022-10-13T19:33:53.930Z,78.29
2022-10-13T19:36:39.005Z,78.93
2022-10-13T19:39:10.824Z,78.86
2022-10-13T19:41:38.503Z,78.64
2022-10-13T19:44:04.988Z,78.51
2022-10-13T19:46:42.607Z,78.38
2022-10-13T19:49:10.953Z,78.21
2022-10-13T19:51:43.151Z,77.90
2022-10-13T19:54:09.782Z,78.26
2022-10-13T19:56:37.523Z,78.06
2022-10-13T19:59:07.658Z,77.96
2022-10-13T20:01:39.889Z,78.67
2022-10-13T20:04:13.093Z,78.92
2022-10-13T20:06:39.993Z,78.90
2022-10-13T20:09:06.513Z,78.68
2022-10-13T20:11:33.046Z,78.43
2022-10-13T20:13:59.500Z,78.03
2022-10-13T20:16:26.130Z,78.11
2022-10-13T20:18:59.543Z,78.50
2022-10-13T20:21:27.887Z,78.54
2022-10-13T20:23:54.989Z,78.57
2022-10-13T20:26:22.516Z,78.23
2022-10-13T20:28:50.753Z,78.13
2022-10-13T20:31:19.327Z,78.18
2022-10-13T20:33:46.950Z,78.47
2022-10-13T20:36:15.784Z,78.50
2022-10-13T20:38:42.391Z,78.09
2022-10-13T20:41:19.987Z,78.06
2022-10-13T20:43:47.859Z,78.19
2022-10-13T20:46:16.150Z,78.30
2022-10-13T20:49:13.844Z,77.95
2022-10-13T20:51:30.299Z,77.81
2022-10-13T20:53:56.722Z,77.62
2022-10-13T20:56:25.314Z,77.75
2022-10-13T20:58:52.451Z,77.74
2022-10-13T21:01:20.752Z,78.00
2022-10-13T21:03:54.543Z,78.09
2022-10-13T21:06:22.649Z,77.97
2022-10-13T21:08:49.446Z,77.75
2022-10-13T21:11:17.885Z,77.74
2022-10-13T21:13:44.936Z,77.10
2022-10-13T21:16:17.401Z,77.17
2022-10-13T21:18:48.001Z,77.06
2022-10-13T21:21:16.799Z,77.74
2022-10-13T21:23:43.750Z,77.78
2022-10-13T21:26:11.866Z,78.01
2022-10-13T21:28:39.348Z,77.84
2022-10-13T21:31:12.819Z,78.03
2022-10-13T21:33:40.877Z,77.89
2022-10-13T21:36:34.259Z,78.40
2022-10-13T21:39:03.691Z,78.22
2022-10-13T21:41:30.465Z,78.38
2022-10-13T21:43:57.071Z,78.04
2022-10-13T21:46:26.658Z,77.98
2022-10-13T21:48:56.465Z,77.92
2022-10-13T21:51:29.550Z,77.82
2022-10-13T21:53:58.384Z,77.79
2022-10-13T21:56:26.185Z,77.65
2022-10-13T21:58:53.838Z,77.98
2022-10-13T22:01:21.101Z,78.12
2022-10-13T22:03:48.650Z,77.83
2022-10-13T22:06:19.717Z,77.87
2022-10-13T22:08:49.075Z,77.92
2022-10-13T22:11:21.705Z,77.71
2022-10-13T22:13:48.179Z,78.18
2022-10-13T22:16:18.299Z,78.12
2022-10-13T22:18:45.240Z,78.73
2022-10-13T22:21:15.116Z,78.58
2022-10-13T22:23:42.051Z,78.42
2022-10-13T22:26:09.455Z,78.49
2022-10-13T22:28:37.441Z,78.92
2022-10-13T22:31:05.932Z,79.01
2022-10-13T22:33:34.469Z,78.75
2022-10-13T22:36:05.331Z,78.85
2022-10-13T22:38:31.779Z,79.12
2022-10-13T22:41:03.163Z,79.24
2022-10-13T22:43:29.671Z,79.29
2022-10-13T22:45:57.084Z,79.11
2022-10-13T22:48:23.587Z,78.45
2022-10-13T22:50:50.094Z,78.73
2022-10-13T22:53:16.556Z,79.16
2022-10-13T22:55:42.975Z,78.98
2022-10-13T22:58:09.574Z,79.23
2022-10-13T23:00:36.831Z,79.52
2022-10-13T23:03:03.906Z,79.67
2022-10-13T23:05:30.975Z,79.61
2022-10-13T23:07:57.651Z,79.54
2022-10-13T23:10:24.503Z,79.23
2022-10-13T23:12:50.943Z,79.37
2022-10-13T23:15:17.442Z,79.32
2022-10-13T23:17:43.895Z,79.10
2022-10-13T23:20:10.504Z,78.77
2022-10-13T23:22:36.931Z,78.73
2022-10-13T23:25:03.462Z,78.86
2022-10-13T23:27:29.934Z,78.95
2022-10-13T23:29:56.403Z,78.94
2022-10-13T23:32:24.748Z,79.10
2022-10-13T23:34:51.190Z,79.24
2022-10-13T23:37:19.621Z,79.05
2022-10-13T23:39:46.351Z,79.08
2022-10-13T23:42:13.133Z,78.97
2022-10-13T23:44:39.630Z,78.96
2022-10-13T23:47:06.059Z,79.31
2022-10-13T23:49:32.473Z,79.31
2022-10-13T23:51:58.899Z,79.32
2022-10-13T23:54:25.337Z,79.33
2022-10-13T23:56:51.759Z,79.55
2022-10-13T23:59:18.188Z,79.29
